sensor_id;sensor_type;location;lat;lon;timestamp;pressure;altitude;pressure_sealevel;temperature;humidity
21433;BME280;18592;49.708;10.900;2023-04-30T00:01:37;98958.94;;;18.73;50.27
21433;BME280;18592;49.708;10.900;2023-04-30T00:03:39;98956.19;;;18.73;50.14
21433;BME280;18592;49.708;10.900;2023-04-30T00:05:40;98961.72;;;18.73;50.29
21433;BME280;18592;49.708;10.900;2023-04-30T00:07:42;98957.59;;;18.70;49.91
21433;BME280;18592;49.708;10.900;2023-04-30T00:09:43;98958.72;;;18.69;49.99
21433;BME280;18592;49.708;10.900;2023-04-30T00:11:45;98964.25;;;18.69;50.26
21433;BME280;18592;49.708;10.900;2023-04-30T00:13:46;98963.44;;;18.69;50.13
21433;BME280;18592;49.708;10.900;2023-04-30T00:15:48;98968.44;;;18.67;50.03
21433;BME280;18592;49.708;10.900;2023-04-30T00:17:49;98969.84;;;18.64;50.17
21433;BME280;18592;49.708;10.900;2023-04-30T00:19:51;98968.19;;;18.63;50.23
21433;BME280;18592;49.708;10.900;2023-04-30T00:21:53;98974.00;;;18.62;50.05
21433;BME280;18592;49.708;10.900;2023-04-30T00:23:54;98966.81;;;18.61;50.04
21433;BME280;18592;49.708;10.900;2023-04-30T00:25:56;98969.59;;;18.61;50.30
21433;BME280;18592;49.708;10.900;2023-04-30T00:27:57;98976.22;;;18.60;50.21
21433;BME280;18592;49.708;10.900;2023-04-30T00:29:59;98969.06;;;18.59;50.51
21433;BME280;18592;49.708;10.900;2023-04-30T00:32:00;98978.44;;;18.58;50.43
21433;BME280;18592;49.708;10.900;2023-04-30T00:34:02;98974.84;;;18.57;50.43
21433;BME280;18592;49.708;10.900;2023-04-30T00:36:03;98974.84;;;18.57;50.41
21433;BME280;18592;49.708;10.900;2023-04-30T00:38:05;98974.06;;;18.57;50.58
21433;BME280;18592;49.708;10.900;2023-04-30T00:40:07;98967.72;;;18.56;50.57
21433;BME280;18592;49.708;10.900;2023-04-30T00:42:09;98974.06;;;18.57;50.60
21433;BME280;18592;49.708;10.900;2023-04-30T00:44:10;98978.75;;;18.56;50.41
21433;BME280;18592;49.708;10.900;2023-04-30T00:46:11;98978.22;;;18.54;50.67
21433;BME280;18592;49.708;10.900;2023-04-30T00:48:13;98979.34;;;18.53;50.51
21433;BME280;18592;49.708;10.900;2023-04-30T00:50:16;98975.16;;;18.56;50.60
21433;BME280;18592;49.708;10.900;2023-04-30T00:52:17;98982.09;;;18.53;50.49
21433;BME280;18592;49.708;10.900;2023-04-30T00:54:19;98982.94;;;18.54;50.74
21433;BME280;18592;49.708;10.900;2023-04-30T00:56:21;98985.16;;;18.52;50.64
21433;BME280;18592;49.708;10.900;2023-04-30T00:58:23;98984.03;;;18.53;50.71
21433;BME280;18592;49.708;10.900;2023-04-30T01:00:26;98987.91;;;18.52;50.72
21433;BME280;18592;49.708;10.900;2023-04-30T01:02:27;98985.16;;;18.52;50.65
21433;BME280;18592;49.708;10.900;2023-04-30T01:04:30;98987.91;;;18.52;50.90
21433;BME280;18592;49.708;10.900;2023-04-30T01:06:31;98992.63;;;18.51;50.78
21433;BME280;18592;49.708;10.900;2023-04-30T01:08:33;98985.16;;;18.52;50.59
21433;BME280;18592;49.708;10.900;2023-04-30T01:10:40;98997.31;;;18.51;50.80
21433;BME280;18592;49.708;10.900;2023-04-30T01:13:03;98994.03;;;18.49;50.90
21433;BME280;18592;49.708;10.900;2023-04-30T01:15:13;98993.19;;;18.48;50.88
21433;BME280;18592;49.708;10.900;2023-04-30T01:17:27;98987.13;;;18.46;50.98
21433;BME280;18592;49.708;10.900;2023-04-30T01:19:43;98990.97;;;18.45;51.00
21433;BME280;18592;49.708;10.900;2023-04-30T01:24:52;98991.84;;;18.40;51.02
21433;BME280;18592;49.708;10.900;2023-04-30T01:27:12;98994.63;;;18.40;50.91
21433;BME280;18592;49.708;10.900;2023-04-30T01:29:18;98991.03;;;18.40;50.94
21433;BME280;18592;49.708;10.900;2023-04-30T01:31:19;98990.19;;;18.39;51.06
21433;BME280;18592;49.708;10.900;2023-04-30T01:33:24;98996.53;;;18.40;50.98
21433;BME280;18592;49.708;10.900;2023-04-30T01:35:48;98989.69;;;18.37;50.97
21433;BME280;18592;49.708;10.900;2023-04-30T01:38:16;98999.09;;;18.36;51.17
21433;BME280;18592;49.708;10.900;2023-04-30T01:40:32;99005.13;;;18.38;50.93
21433;BME280;18592;49.708;10.900;2023-04-30T01:42:46;99002.38;;;18.38;51.04
21433;BME280;18592;49.708;10.900;2023-04-30T01:51:43;99006.81;;;18.34;51.15
21433;BME280;18592;49.708;10.900;2023-04-30T01:53:46;99009.56;;;18.34;51.02
21433;BME280;18592;49.708;10.900;2023-04-30T01:57:56;99013.47;;;18.33;51.00
21433;BME280;18592;49.708;10.900;2023-04-30T01:59:59;99011.53;;;18.34;51.01
21433;BME280;18592;49.708;10.900;2023-04-30T02:02:01;99019.50;;;18.35;51.22
21433;BME280;18592;49.708;10.900;2023-04-30T02:04:03;99015.09;;;18.34;51.13
21433;BME280;18592;49.708;10.900;2023-04-30T02:06:05;99019.81;;;18.34;51.20
21433;BME280;18592;49.708;10.900;2023-04-30T02:08:07;99019.50;;;18.35;51.11
21433;BME280;18592;49.708;10.900;2023-04-30T02:10:10;99019.50;;;18.35;51.06
21433;BME280;18592;49.708;10.900;2023-04-30T02:12:12;99028.91;;;18.34;51.09
21433;BME280;18592;49.708;10.900;2023-04-30T02:14:13;99022.56;;;18.34;51.13
21433;BME280;18592;49.708;10.900;2023-04-30T02:16:15;99030.84;;;18.34;51.19
21433;BME280;18592;49.708;10.900;2023-04-30T02:18:17;99023.38;;;18.34;51.33
21433;BME280;18592;49.708;10.900;2023-04-30T02:20:18;99032.47;;;18.35;51.19
21433;BME280;18592;49.708;10.900;2023-04-30T02:22:20;99033.63;;;18.34;50.97
21433;BME280;18592;49.708;10.900;2023-04-30T02:24:22;99035.53;;;18.33;51.18
21433;BME280;18592;49.708;10.900;2023-04-30T02:26:23;99041.91;;;18.34;51.19
21433;BME280;18592;49.708;10.900;2023-04-30T02:28:25;99041.06;;;18.33;51.16
21433;BME280;18592;49.708;10.900;2023-04-30T02:30:26;99043.81;;;18.33;51.28
21433;BME280;18592;49.708;10.900;2023-04-30T02:32:29;99039.41;;;18.32;51.29
21433;BME280;18592;49.708;10.900;2023-04-30T02:34:31;99040.53;;;18.31;51.00
21433;BME280;18592;49.708;10.900;2023-04-30T02:36:32;99041.63;;;18.30;51.08
21433;BME280;18592;49.708;10.900;2023-04-30T02:38:36;99036.13;;;18.30;51.12
21433;BME280;18592;49.708;10.900;2023-04-30T02:40:40;99038.88;;;18.30;51.25
21433;BME280;18592;49.708;10.900;2023-04-30T02:42:41;99039.19;;;18.29;51.24
21433;BME280;18592;49.708;10.900;2023-04-30T02:44:43;99032.00;;;18.28;51.20
21433;BME280;18592;49.708;10.900;2023-04-30T02:46:44;99036.16;;;18.25;51.20
21433;BME280;18592;49.708;10.900;2023-04-30T02:48:46;99036.69;;;18.27;51.15
21433;BME280;18592;49.708;10.900;2023-04-30T02:50:47;99031.75;;;18.24;51.25
21433;BME280;18592;49.708;10.900;2023-04-30T02:52:49;99038.09;;;18.25;51.15
21433;BME280;18592;49.708;10.900;2023-04-30T02:54:50;99035.63;;;18.23;51.29
21433;BME280;18592;49.708;10.900;2023-04-30T02:56:52;99035.63;;;18.23;51.12
21433;BME280;18592;49.708;10.900;2023-04-30T02:58:54;99037.88;;;18.21;51.27
21433;BME280;18592;49.708;10.900;2023-04-30T03:00:55;99042.25;;;18.22;51.11
21433;BME280;18592;49.708;10.900;2023-04-30T03:02:57;99033.44;;;18.20;51.14
21433;BME280;18592;49.708;10.900;2023-04-30T03:04:59;99040.91;;;18.20;51.34
21433;BME280;18592;49.708;10.900;2023-04-30T03:07:00;99037.88;;;18.21;51.16
21433;BME280;18592;49.708;10.900;2023-04-30T03:09:03;99048.34;;;18.19;51.20
21433;BME280;18592;49.708;10.900;2023-04-30T03:11:05;99046.72;;;18.18;51.42
21433;BME280;18592;49.708;10.900;2023-04-30T03:13:06;99043.66;;;18.20;51.32
21433;BME280;18592;49.708;10.900;2023-04-30T03:15:08;99041.19;;;18.18;51.26
21433;BME280;18592;49.708;10.900;2023-04-30T03:17:09;99036.78;;;18.17;51.53
21433;BME280;18592;49.708;10.900;2023-04-30T03:19:11;99041.19;;;18.18;51.43
21433;BME280;18592;49.708;10.900;2023-04-30T03:21:12;99037.59;;;18.18;51.33
21433;BME280;18592;49.708;10.900;2023-04-30T03:23:14;99034.31;;;18.16;51.36
21433;BME280;18592;49.708;10.900;2023-04-30T03:25:15;99031.81;;;18.14;51.42
21433;BME280;18592;49.708;10.900;2023-04-30T03:27:17;99036.56;;;18.14;51.29
21433;BME280;18592;49.708;10.900;2023-04-30T03:29:18;99031.31;;;18.12;51.32
21433;BME280;18592;49.708;10.900;2023-04-30T03:31:20;99029.38;;;18.13;51.54
21433;BME280;18592;49.708;10.900;2023-04-30T03:33:21;99028.53;;;18.12;51.51
21433;BME280;18592;49.708;10.900;2023-04-30T03:35:23;99033.53;;;18.10;51.60
21433;BME280;18592;49.708;10.900;2023-04-30T03:37:24;99030.47;;;18.12;51.44
21433;BME280;18592;49.708;10.900;2023-04-30T03:39:26;99035.47;;;18.10;51.63
21433;BME280;18592;49.708;10.900;2023-04-30T03:41:28;99022.78;;;18.09;51.49
21433;BME280;18592;49.708;10.900;2023-04-30T03:43:30;99028.59;;;18.07;51.51
21433;BME280;18592;49.708;10.900;2023-04-30T03:45:31;99035.75;;;18.08;51.40
21433;BME280;18592;49.708;10.900;2023-04-30T03:47:34;99030.50;;;18.07;51.45
21433;BME280;18592;49.708;10.900;2023-04-30T03:49:36;99036.34;;;18.05;51.48
21433;BME280;18592;49.708;10.900;2023-04-30T03:51:37;99031.09;;;18.04;51.40
21433;BME280;18592;49.708;10.900;2023-04-30T03:53:41;99030.28;;;18.03;51.61
21433;BME280;18592;49.708;10.900;2023-04-30T03:55:43;99041.31;;;18.03;51.47
21433;BME280;18592;49.708;10.900;2023-04-30T03:57:45;99037.72;;;18.03;51.52
21433;BME280;18592;49.708;10.900;2023-04-30T03:59:46;99035.25;;;18.01;51.43
21433;BME280;18592;49.708;10.900;2023-04-30T04:01:48;99033.31;;;18.02;51.64
21433;BME280;18592;49.708;10.900;2023-04-30T04:03:50;99022.56;;;18.00;51.39
21433;BME280;18592;49.708;10.900;2023-04-30T04:05:52;99029.19;;;17.99;51.53
21433;BME280;18592;49.708;10.900;2023-04-30T04:07:54;99033.09;;;17.98;51.57
21433;BME280;18592;49.708;10.900;2023-04-30T04:09:55;99032.53;;;17.96;51.50
21433;BME280;18592;49.708;10.900;2023-04-30T04:11:57;99042.44;;;17.97;51.53
21433;BME280;18592;49.708;10.900;2023-04-30T04:13:59;99032.81;;;17.95;51.46
21433;BME280;18592;49.708;10.900;2023-04-30T04:16:01;99037.50;;;17.94;51.58
21433;BME280;18592;49.708;10.900;2023-04-30T04:18:02;99039.44;;;17.94;51.60
21433;BME280;18592;49.708;10.900;2023-04-30T04:20:06;99044.41;;;17.92;51.63
21433;BME280;18592;49.708;10.900;2023-04-30T04:22:09;99045.25;;;17.92;51.68
21433;BME280;18592;49.708;10.900;2023-04-30T04:24:11;99048.31;;;17.91;51.75
21433;BME280;18592;49.708;10.900;2023-04-30T04:26:13;99047.47;;;17.90;51.77
21433;BME280;18592;49.708;10.900;2023-04-30T04:28:15;99045.56;;;17.91;51.75
21433;BME280;18592;49.708;10.900;2023-04-30T04:30:17;99053.81;;;17.91;51.64
21433;BME280;18592;49.708;10.900;2023-04-30T04:32:20;99052.47;;;17.88;51.89
21433;BME280;18592;49.708;10.900;2023-04-30T04:34:23;99046.38;;;17.86;51.92
21433;BME280;18592;49.708;10.900;2023-04-30T04:36:26;99054.38;;;17.88;51.73
21433;BME280;18592;49.708;10.900;2023-04-30T04:38:29;99049.72;;;17.88;51.82
21433;BME280;18592;49.708;10.900;2023-04-30T04:40:31;99051.63;;;17.88;51.95
21433;BME280;18592;49.708;10.900;2023-04-30T04:42:32;99055.22;;;17.88;51.93
21433;BME280;18592;49.708;10.900;2023-04-30T04:44:33;99062.38;;;17.89;51.98
21433;BME280;18592;49.708;10.900;2023-04-30T04:46:35;99048.03;;;17.87;51.87
21433;BME280;18592;49.708;10.900;2023-04-30T04:48:39;99052.47;;;17.88;51.94
21433;BME280;18592;49.708;10.900;2023-04-30T04:50:41;99053.56;;;17.87;51.79
21433;BME280;18592;49.708;10.900;2023-04-30T04:52:43;99053.56;;;17.87;51.90
21433;BME280;18592;49.708;10.900;2023-04-30T04:54:44;99054.38;;;17.88;51.87
21433;BME280;18592;49.708;10.900;2023-04-30T04:56:46;99061.53;;;17.89;51.87
21433;BME280;18592;49.708;10.900;2023-04-30T04:58:49;99053.56;;;17.87;52.01
21433;BME280;18592;49.708;10.900;2023-04-30T05:00:50;99052.47;;;17.88;51.88
21433;BME280;18592;49.708;10.900;2023-04-30T05:02:52;99051.63;;;17.88;52.05
21433;BME280;18592;49.708;10.900;2023-04-30T05:04:53;99055.22;;;17.88;52.09
21433;BME280;18592;49.708;10.900;2023-04-30T05:06:56;99051.34;;;17.89;52.06
21433;BME280;18592;49.708;10.900;2023-04-30T05:08:58;99052.16;;;17.90;51.90
21433;BME280;18592;49.708;10.900;2023-04-30T05:10:59;99066.78;;;17.90;51.65
21433;BME280;18592;49.708;10.900;2023-04-30T05:13:01;99061.81;;;17.92;51.74
21433;BME280;18592;49.708;10.900;2023-04-30T05:15:02;99059.03;;;17.92;51.78
21433;BME280;18592;49.708;10.900;2023-04-30T05:17:05;99059.03;;;17.92;51.77
21433;BME280;18592;49.708;10.900;2023-04-30T05:19:06;99062.63;;;17.93;51.81
21433;BME280;18592;49.708;10.900;2023-04-30T05:21:09;99062.63;;;17.93;51.53
21433;BME280;18592;49.708;10.900;2023-04-30T05:23:11;99056.28;;;17.92;51.51
21433;BME280;18592;49.708;10.900;2023-04-30T05:25:12;99062.91;;;17.91;51.60
21433;BME280;18592;49.708;10.900;2023-04-30T05:27:14;99064.03;;;17.90;51.72
21433;BME280;18592;49.708;10.900;2023-04-30T05:29:16;99059.34;;;17.91;51.33
21433;BME280;18592;49.708;10.900;2023-04-30T05:31:18;99071.19;;;17.91;51.30
21433;BME280;18592;49.708;10.900;2023-04-30T05:33:21;99064.03;;;17.90;51.33
21433;BME280;18592;49.708;10.900;2023-04-30T05:35:23;99064.84;;;17.91;51.52
21433;BME280;18592;49.708;10.900;2023-04-30T05:37:24;99072.00;;;17.92;51.40
21433;BME280;18592;49.708;10.900;2023-04-30T05:39:26;99074.75;;;17.92;51.57
21433;BME280;18592;49.708;10.900;2023-04-30T05:41:27;99083.56;;;17.94;51.34
21433;BME280;18592;49.708;10.900;2023-04-30T05:43:29;99080.00;;;17.93;51.18
21433;BME280;18592;49.708;10.900;2023-04-30T05:45:30;99070.59;;;17.94;51.17
21433;BME280;18592;49.708;10.900;2023-04-30T05:47:31;99077.78;;;17.95;51.03
21433;BME280;18592;49.708;10.900;2023-04-30T05:49:33;99075.03;;;17.95;51.13
21433;BME280;18592;49.708;10.900;2023-04-30T05:51:36;99075.03;;;17.95;51.00
21433;BME280;18592;49.708;10.900;2023-04-30T05:53:38;99090.44;;;17.96;50.98
21433;BME280;18592;49.708;10.900;2023-04-30T05:55:40;99077.78;;;17.95;50.81
21433;BME280;18592;49.708;10.900;2023-04-30T05:57:41;99084.13;;;17.96;50.73
21433;BME280;18592;49.708;10.900;2023-04-30T05:59:43;99076.38;;;17.98;50.73
21433;BME280;18592;49.708;10.900;2023-04-30T06:01:44;99082.44;;;18.00;50.72
21433;BME280;18592;49.708;10.900;2023-04-30T06:03:46;99076.88;;;18.05;50.79
21433;BME280;18592;49.708;10.900;2023-04-30T06:05:47;99071.63;;;18.08;50.71
21433;BME280;18592;49.708;10.900;2023-04-30T06:07:49;99077.09;;;18.13;50.98
21433;BME280;18592;49.708;10.900;2023-04-30T06:09:50;99070.41;;;18.19;51.08
21433;BME280;18592;49.708;10.900;2023-04-30T06:11:52;99073.69;;;18.26;51.20
21433;BME280;18592;49.708;10.900;2023-04-30T06:13:53;99075.81;;;18.34;51.09
21433;BME280;18592;49.708;10.900;2023-04-30T06:15:55;99075.72;;;18.45;50.77
21433;BME280;18592;49.708;10.900;2023-04-30T06:17:57;99082.91;;;18.51;50.94
21433;BME280;18592;49.708;10.900;2023-04-30T06:19:58;99081.16;;;18.60;50.95
21433;BME280;18592;49.708;10.900;2023-04-30T06:22:02;99081.88;;;18.70;50.43
21433;BME280;18592;49.708;10.900;2023-04-30T06:24:04;99084.53;;;18.80;50.56
21433;BME280;18592;49.708;10.900;2023-04-30T06:26:05;99080.84;;;18.90;50.20
21433;BME280;18592;49.708;10.900;2023-04-30T06:28:07;99069.16;;;18.98;49.81
21433;BME280;18592;49.708;10.900;2023-04-30T06:30:10;99070.69;;;19.09;50.30
21433;BME280;18592;49.708;10.900;2023-04-30T06:32:11;99079.72;;;19.20;50.41
21433;BME280;18592;49.708;10.900;2023-04-30T06:34:13;99075.16;;;19.29;50.03
21433;BME280;18592;49.708;10.900;2023-04-30T06:36:14;99075.06;;;19.39;49.94
21433;BME280;18592;49.708;10.900;2023-04-30T06:38:16;99072.47;;;19.47;49.84
21433;BME280;18592;49.708;10.900;2023-04-30T06:40:18;99072.63;;;19.56;49.98
21433;BME280;18592;49.708;10.900;2023-04-30T06:42:20;99075.56;;;19.64;49.65
21433;BME280;18592;49.708;10.900;2023-04-30T06:44:22;99069.88;;;19.75;48.86
21433;BME280;18592;49.708;10.900;2023-04-30T06:46:24;99065.63;;;19.82;48.88
21433;BME280;18592;49.708;10.900;2023-04-30T06:48:25;99066.91;;;19.90;48.45
21433;BME280;18592;49.708;10.900;2023-04-30T06:50:27;99070.63;;;19.99;48.40
21433;BME280;18592;49.708;10.900;2023-04-30T06:52:29;99073.88;;;20.06;48.22
21433;BME280;18592;49.708;10.900;2023-04-30T06:54:30;99071.53;;;20.13;48.11
21433;BME280;18592;49.708;10.900;2023-04-30T06:56:32;99061.72;;;20.20;48.02
21433;BME280;18592;49.708;10.900;2023-04-30T06:58:33;99068.84;;;20.26;47.40
21433;BME280;18592;49.708;10.900;2023-04-30T07:00:35;99063.22;;;20.32;47.27
21433;BME280;18592;49.708;10.900;2023-04-30T07:02:36;99065.63;;;20.38;47.76
21433;BME280;18592;49.708;10.900;2023-04-30T07:04:38;99062.97;;;20.47;47.58
21433;BME280;18592;49.708;10.900;2023-04-30T07:06:39;99072.00;;;20.52;47.12
21433;BME280;18592;49.708;10.900;2023-04-30T07:08:41;99071.31;;;20.60;47.04
21433;BME280;18592;49.708;10.900;2023-04-30T07:10:44;99076.47;;;20.67;46.57
21433;BME280;18592;49.708;10.900;2023-04-30T07:12:45;99071.97;;;20.71;47.11
21433;BME280;18592;49.708;10.900;2023-04-30T07:14:47;99073.22;;;20.78;46.65
21433;BME280;18592;49.708;10.900;2023-04-30T07:16:52;99073.13;;;20.83;46.34
21433;BME280;18592;49.708;10.900;2023-04-30T07:18:53;99081.34;;;20.88;46.58
21433;BME280;18592;49.708;10.900;2023-04-30T07:20:55;99081.25;;;20.94;46.39
21433;BME280;18592;49.708;10.900;2023-04-30T07:22:56;99087.19;;;21.01;46.63
21433;BME280;18592;49.708;10.900;2023-04-30T07:24:58;99076.88;;;21.06;46.21
21433;BME280;18592;49.708;10.900;2023-04-30T07:27:00;99078.44;;;21.12;45.81
21433;BME280;18592;49.708;10.900;2023-04-30T07:29:04;99077.19;;;21.18;45.68
21433;BME280;18592;49.708;10.900;2023-04-30T07:31:05;99077.91;;;21.24;45.33
21433;BME280;18592;49.708;10.900;2023-04-30T07:33:08;99071.44;;;21.28;45.49
21433;BME280;18592;49.708;10.900;2023-04-30T07:35:09;99077.38;;;21.35;45.15
21433;BME280;18592;49.708;10.900;2023-04-30T07:37:11;99072.56;;;21.41;45.26
21433;BME280;18592;49.708;10.900;2023-04-30T07:39:14;99069.06;;;21.49;45.44
21433;BME280;18592;49.708;10.900;2023-04-30T07:41:15;99069.78;;;21.55;45.11
21433;BME280;18592;49.708;10.900;2023-04-30T07:43:16;99070.19;;;21.62;44.97
21433;BME280;18592;49.708;10.900;2023-04-30T07:45:18;99070.56;;;21.69;44.51
21433;BME280;18592;49.708;10.900;2023-04-30T07:47:22;99067.41;;;21.75;44.66
21433;BME280;18592;49.708;10.900;2023-04-30T07:49:24;99080.50;;;21.83;44.53
21433;BME280;18592;49.708;10.900;2023-04-30T07:51:26;99072.09;;;21.88;44.41
21433;BME280;18592;49.708;10.900;2023-04-30T07:53:27;99076.91;;;21.96;44.24
21433;BME280;18592;49.708;10.900;2023-04-30T07:55:29;99069.81;;;22.04;44.19
21433;BME280;18592;49.708;10.900;2023-04-30T07:57:31;99076.56;;;22.11;44.12
21433;BME280;18592;49.708;10.900;2023-04-30T07:59:32;99066.66;;;22.19;44.10
21433;BME280;18592;49.708;10.900;2023-04-30T08:01:34;99075.41;;;22.26;43.92
21433;BME280;18592;49.708;10.900;2023-04-30T08:03:36;99064.34;;;22.35;43.78
21433;BME280;18592;49.708;10.900;2023-04-30T08:05:38;99063.09;;;22.41;43.56
21433;BME280;18592;49.708;10.900;2023-04-30T08:07:39;99066.72;;;22.50;44.04
21433;BME280;18592;49.708;10.900;2023-04-30T08:09:41;99068.75;;;22.58;43.95
21433;BME280;18592;49.708;10.900;2023-04-30T08:11:43;99075.75;;;22.69;43.92
21433;BME280;18592;49.708;10.900;2023-04-30T08:13:45;99067.44;;;22.77;43.85
21433;BME280;18592;49.708;10.900;2023-04-30T08:15:47;99069.09;;;22.87;43.77
21433;BME280;18592;49.708;10.900;2023-04-30T08:17:49;99067.50;;;22.95;43.63
21433;BME280;18592;49.708;10.900;2023-04-30T08:19:51;99064.47;;;23.05;43.36
21433;BME280;18592;49.708;10.900;2023-04-30T08:21:53;99061.22;;;23.11;42.80
21433;BME280;18592;49.708;10.900;2023-04-30T08:23:54;99068.59;;;23.16;42.38
21433;BME280;18592;49.708;10.900;2023-04-30T08:25:57;99054.88;;;23.19;42.38
21433;BME280;18592;49.708;10.900;2023-04-30T08:27:59;99053.09;;;23.23;42.18
21433;BME280;18592;49.708;10.900;2023-04-30T08:30:00;99064.06;;;23.28;42.15
21433;BME280;18592;49.708;10.900;2023-04-30T08:32:02;99053.13;;;23.32;41.38
21433;BME280;18592;49.708;10.900;2023-04-30T08:34:04;99051.97;;;23.33;41.47
21433;BME280;18592;49.708;10.900;2023-04-30T08:36:06;99047.22;;;23.33;41.73
21433;BME280;18592;49.708;10.900;2023-04-30T08:38:07;99053.63;;;23.34;41.30
21433;BME280;18592;49.708;10.900;2023-04-30T08:40:09;99048.88;;;23.34;41.13
21433;BME280;18592;49.708;10.900;2023-04-30T08:42:13;99052.50;;;23.35;41.22
21433;BME280;18592;49.708;10.900;2023-04-30T08:44:15;99047.22;;;23.33;41.06
21433;BME280;18592;49.708;10.900;2023-04-30T08:46:16;99046.41;;;23.33;40.72
21433;BME280;18592;49.708;10.900;2023-04-30T08:48:20;99052.31;;;23.31;40.79
21433;BME280;18592;49.708;10.900;2023-04-30T08:50:23;99045.63;;;23.32;41.02
21433;BME280;18592;49.708;10.900;2023-04-30T08:52:26;99044.94;;;23.35;40.77
21433;BME280;18592;49.708;10.900;2023-04-30T08:54:30;99040.41;;;23.40;40.91
21433;BME280;18592;49.708;10.900;2023-04-30T08:56:32;99045.66;;;23.41;40.50
21433;BME280;18592;49.708;10.900;2023-04-30T08:58:35;99049.25;;;23.42;40.00
21433;BME280;18592;49.708;10.900;2023-04-30T09:00:39;99044.03;;;23.40;40.05
21433;BME280;18592;49.708;10.900;2023-04-30T09:02:41;99055.66;;;23.42;40.15
21433;BME280;18592;49.708;10.900;2023-04-30T09:04:43;99044.53;;;23.42;40.17
21433;BME280;18592;49.708;10.900;2023-04-30T09:06:46;99046.16;;;23.43;39.84
21433;BME280;18592;49.708;10.900;2023-04-30T09:08:48;99053.19;;;23.41;40.27
21433;BME280;18592;49.708;10.900;2023-04-30T09:10:50;99042.38;;;23.39;40.17
21433;BME280;18592;49.708;10.900;2023-04-30T09:12:58;99049.91;;;23.38;39.13
21433;BME280;18592;49.708;10.900;2023-04-30T09:15:04;99052.03;;;23.42;39.95
21433;BME280;18592;49.708;10.900;2023-04-30T09:17:07;99053.69;;;23.43;40.41
21433;BME280;18592;49.708;10.900;2023-04-30T09:19:29;99048.78;;;23.40;40.06
21433;BME280;18592;49.708;10.900;2023-04-30T09:21:35;99058.75;;;23.41;39.74
21433;BME280;18592;49.708;10.900;2023-04-30T09:23:53;99044.94;;;23.35;40.21
21433;BME280;18592;49.708;10.900;2023-04-30T09:25:55;99052.69;;;23.38;40.44
21433;BME280;18592;49.708;10.900;2023-04-30T09:28:10;99044.34;;;23.38;40.81
21433;BME280;18592;49.708;10.900;2023-04-30T09:30:29;99042.88;;;23.41;40.63
21433;BME280;18592;49.708;10.900;2023-04-30T09:32:32;99038.31;;;23.45;41.04
21433;BME280;18592;49.708;10.900;2023-04-30T09:34:33;99034.38;;;23.46;40.85
21433;BME280;18592;49.708;10.900;2023-04-30T09:36:36;99046.66;;;23.54;41.38
21433;BME280;18592;49.708;10.900;2023-04-30T09:38:38;99047.81;;;23.61;40.47
21433;BME280;18592;49.708;10.900;2023-04-30T09:40:41;99049.63;;;23.66;40.67
21433;BME280;18592;49.708;10.900;2023-04-30T09:42:57;99045.22;;;23.73;40.88
21433;BME280;18592;49.708;10.900;2023-04-30T09:44:59;99044.91;;;23.83;40.60
21433;BME280;18592;49.708;10.900;2023-04-30T09:47:01;99035.44;;;23.93;40.50
21433;BME280;18592;49.708;10.900;2023-04-30T09:49:05;99041.00;;;24.01;40.56
21433;BME280;18592;49.708;10.900;2023-04-30T09:51:07;99033.16;;;24.12;40.71
21433;BME280;18592;49.708;10.900;2023-04-30T09:53:11;99042.03;;;24.23;39.74
21433;BME280;18592;49.708;10.900;2023-04-30T09:55:15;99034.16;;;24.33;39.65
21433;BME280;18592;49.708;10.900;2023-04-30T09:57:20;99027.53;;;24.46;40.70
21433;BME280;18592;49.708;10.900;2023-04-30T09:59:27;99040.66;;;24.63;41.23
21433;BME280;18592;49.708;10.900;2023-04-30T10:01:31;99032.59;;;24.79;40.06
21433;BME280;18592;49.708;10.900;2023-04-30T10:03:34;99034.38;;;24.92;40.29
21433;BME280;18592;49.708;10.900;2023-04-30T10:05:41;99029.72;;;25.04;39.49
21433;BME280;18592;49.708;10.900;2023-04-30T10:07:45;99026.69;;;25.18;39.59
21433;BME280;18592;49.708;10.900;2023-04-30T10:09:48;99018.44;;;25.30;39.62
21433;BME280;18592;49.708;10.900;2023-04-30T10:11:50;99010.97;;;25.43;39.75
21433;BME280;18592;49.708;10.900;2023-04-30T10:14:09;99016.34;;;25.56;40.12
21433;BME280;18592;49.708;10.900;2023-04-30T10:16:26;99012.13;;;25.71;40.64
21433;BME280;18592;49.708;10.900;2023-04-30T10:18:33;99014.47;;;25.90;40.57
21433;BME280;18592;49.708;10.900;2023-04-30T10:20:35;99008.25;;;26.05;40.54
21433;BME280;18592;49.708;10.900;2023-04-30T10:22:38;99005.22;;;26.18;39.87
21433;BME280;18592;49.708;10.900;2023-04-30T10:24:42;98995.59;;;26.28;38.74
21433;BME280;18592;49.708;10.900;2023-04-30T10:26:46;98995.16;;;26.38;38.69
21433;BME280;18592;49.708;10.900;2023-04-30T10:28:48;98992.97;;;26.43;37.75
21433;BME280;18592;49.708;10.900;2023-04-30T10:30:51;98989.97;;;26.48;37.51
21433;BME280;18592;49.708;10.900;2023-04-30T10:33:15;98985.97;;;26.49;37.12
21433;BME280;18592;49.708;10.900;2023-04-30T10:35:24;98995.81;;;26.56;37.13
21433;BME280;18592;49.708;10.900;2023-04-30T10:37:36;98989.53;;;26.59;36.75
21433;BME280;18592;49.708;10.900;2023-04-30T10:39:40;98988.94;;;26.65;37.69
21433;BME280;18592;49.708;10.900;2023-04-30T10:41:45;98984.78;;;26.71;37.88
21433;BME280;18592;49.708;10.900;2023-04-30T10:43:47;98985.50;;;26.80;37.38
21433;BME280;18592;49.708;10.900;2023-04-30T10:45:49;98987.41;;;26.88;36.98
21433;BME280;18592;49.708;10.900;2023-04-30T10:47:54;98987.16;;;26.93;37.05
21433;BME280;18592;49.708;10.900;2023-04-30T10:50:02;98972.47;;;26.96;36.64
21433;BME280;18592;49.708;10.900;2023-04-30T10:52:04;98977.94;;;27.05;37.06
21433;BME280;18592;49.708;10.900;2023-04-30T10:54:07;98978.22;;;27.12;36.77
21433;BME280;18592;49.708;10.900;2023-04-30T10:56:08;98977.25;;;27.20;36.46